Terminal Aerodrome Forecast
Issued by NWS

Home | Current Version | Previous Version | Text Only | Print | Product List | Glossary On
Versions: 1 2 3 4 5 6 7 8 9 10 11 12 13 14 15 16
741
FTUS41 KCAR 162338
TAFPQI
TAF
KPQI 162338Z 1700/1724 30005KT P6SM SKC
     FM171500 30010G18KT P6SM BKN040
     FM171900 32010G18KT P6SM SCT050=

USA.gov is the U.S. government's official web portal to all federal, state and local government web resources and services.